sensor_id;sensor_type;location;lat;lon;timestamp;P1;durP1;ratioP1;P2;durP2;ratioP2
19879;SDS011;10102;50.828;4.416;2022-10-31T00:01:12;18.33;;;8.25;;
19879;SDS011;10102;50.828;4.416;2022-10-31T00:03:42;26.77;;;9.18;;
19879;SDS011;10102;50.828;4.416;2022-10-31T00:06:08;23.63;;;9.23;;
19879;SDS011;10102;50.828;4.416;2022-10-31T00:08:34;15.63;;;8.38;;
19879;SDS011;10102;50.828;4.416;2022-10-31T00:10:59;17.95;;;8.48;;
19879;SDS011;10102;50.828;4.416;2022-10-31T00:13:25;16.35;;;8.18;;
19879;SDS011;10102;50.828;4.416;2022-10-31T00:15:51;18.48;;;8.07;;
19879;SDS011;10102;50.828;4.416;2022-10-31T00:18:16;15.18;;;8.13;;
19879;SDS011;10102;50.828;4.416;2022-10-31T00:20:42;13.82;;;8.75;;
19879;SDS011;10102;50.828;4.416;2022-10-31T00:23:08;16.92;;;8.55;;
19879;SDS011;10102;50.828;4.416;2022-10-31T00:25:36;12.73;;;7.72;;
19879;SDS011;10102;50.828;4.416;2022-10-31T00:28:03;17.20;;;8.45;;
19879;SDS011;10102;50.828;4.416;2022-10-31T00:30:30;18.98;;;7.88;;
19879;SDS011;10102;50.828;4.416;2022-10-31T00:32:56;12.77;;;8.07;;
19879;SDS011;10102;50.828;4.416;2022-10-31T00:35:22;14.30;;;7.93;;
19879;SDS011;10102;50.828;4.416;2022-10-31T00:37:47;19.75;;;8.23;;
19879;SDS011;10102;50.828;4.416;2022-10-31T00:40:13;17.33;;;8.27;;
19879;SDS011;10102;50.828;4.416;2022-10-31T00:42:39;12.45;;;7.90;;
19879;SDS011;10102;50.828;4.416;2022-10-31T00:45:07;16.50;;;8.27;;
19879;SDS011;10102;50.828;4.416;2022-10-31T00:47:34;14.73;;;7.68;;
19879;SDS011;10102;50.828;4.416;2022-10-31T00:50:00;21.30;;;7.53;;
19879;SDS011;10102;50.828;4.416;2022-10-31T00:52:25;16.13;;;7.47;;
19879;SDS011;10102;50.828;4.416;2022-10-31T00:54:51;12.32;;;7.88;;
19879;SDS011;10102;50.828;4.416;2022-10-31T00:57:16;17.55;;;8.85;;
19879;SDS011;10102;50.828;4.416;2022-10-31T00:59:42;12.38;;;7.53;;
19879;SDS011;10102;50.828;4.416;2022-10-31T01:02:08;13.23;;;7.85;;
19879;SDS011;10102;50.828;4.416;2022-10-31T01:04:33;14.68;;;7.32;;
19879;SDS011;10102;50.828;4.416;2022-10-31T01:06:59;16.42;;;8.13;;
19879;SDS011;10102;50.828;4.416;2022-10-31T01:09:25;13.30;;;7.20;;
19879;SDS011;10102;50.828;4.416;2022-10-31T01:11:50;14.75;;;8.05;;
19879;SDS011;10102;50.828;4.416;2022-10-31T01:14:16;15.88;;;7.68;;
19879;SDS011;10102;50.828;4.416;2022-10-31T01:16:42;15.57;;;7.28;;
19879;SDS011;10102;50.828;4.416;2022-10-31T01:19:07;22.27;;;7.53;;
19879;SDS011;10102;50.828;4.416;2022-10-31T01:21:33;15.35;;;7.57;;
19879;SDS011;10102;50.828;4.416;2022-10-31T01:23:59;13.15;;;7.32;;
19879;SDS011;10102;50.828;4.416;2022-10-31T01:26:28;13.32;;;7.05;;
19879;SDS011;10102;50.828;4.416;2022-10-31T01:28:58;12.23;;;6.97;;
19879;SDS011;10102;50.828;4.416;2022-10-31T01:31:26;11.73;;;6.90;;
19879;SDS011;10102;50.828;4.416;2022-10-31T01:33:57;15.55;;;7.15;;
19879;SDS011;10102;50.828;4.416;2022-10-31T01:36:27;16.02;;;6.72;;
19879;SDS011;10102;50.828;4.416;2022-10-31T01:38:56;15.40;;;7.03;;
19879;SDS011;10102;50.828;4.416;2022-10-31T01:41:25;16.08;;;6.57;;
19879;SDS011;10102;50.828;4.416;2022-10-31T01:43:54;19.52;;;7.95;;
19879;SDS011;10102;50.828;4.416;2022-10-31T01:46:30;16.73;;;7.40;;
19879;SDS011;10102;50.828;4.416;2022-10-31T01:49:09;16.98;;;6.90;;
19879;SDS011;10102;50.828;4.416;2022-10-31T01:51:45;16.13;;;6.43;;
19879;SDS011;10102;50.828;4.416;2022-10-31T01:54:18;10.25;;;6.57;;
19879;SDS011;10102;50.828;4.416;2022-10-31T01:56:48;13.30;;;6.80;;
19879;SDS011;10102;50.828;4.416;2022-10-31T01:59:18;11.45;;;6.47;;
19879;SDS011;10102;50.828;4.416;2022-10-31T02:01:46;13.13;;;5.88;;
19879;SDS011;10102;50.828;4.416;2022-10-31T02:04:14;15.07;;;6.50;;
19879;SDS011;10102;50.828;4.416;2022-10-31T02:09:23;13.02;;;6.20;;
19879;SDS011;10102;50.828;4.416;2022-10-31T02:11:54;12.32;;;6.95;;
19879;SDS011;10102;50.828;4.416;2022-10-31T02:14:22;13.05;;;6.30;;
19879;SDS011;10102;50.828;4.416;2022-10-31T02:16:50;14.80;;;6.35;;
19879;SDS011;10102;50.828;4.416;2022-10-31T02:19:18;13.00;;;7.10;;
19879;SDS011;10102;50.828;4.416;2022-10-31T02:22:36;13.13;;;6.63;;
19879;SDS011;10102;50.828;4.416;2022-10-31T02:30:04;12.05;;;6.90;;
19879;SDS011;10102;50.828;4.416;2022-10-31T02:35:25;13.80;;;6.20;;
19879;SDS011;10102;50.828;4.416;2022-10-31T02:41:04;14.68;;;6.30;;
19879;SDS011;10102;50.828;4.416;2022-10-31T02:43:39;11.32;;;6.30;;
19879;SDS011;10102;50.828;4.416;2022-10-31T02:52:19;15.75;;;6.45;;
19879;SDS011;10102;50.828;4.416;2022-10-31T02:54:50;11.48;;;6.40;;
19879;SDS011;10102;50.828;4.416;2022-10-31T02:57:17;11.85;;;5.72;;
19879;SDS011;10102;50.828;4.416;2022-10-31T03:00:22;13.73;;;6.00;;
19879;SDS011;10102;50.828;4.416;2022-10-31T03:11:05;12.20;;;6.20;;
19879;SDS011;10102;50.828;4.416;2022-10-31T03:18:43;9.80;;;6.50;;
19879;SDS011;10102;50.828;4.416;2022-10-31T03:21:30;12.00;;;6.30;;
19879;SDS011;10102;50.828;4.416;2022-10-31T03:24:01;11.18;;;6.13;;
19879;SDS011;10102;50.828;4.416;2022-10-31T03:26:28;7.18;;;5.18;;
19879;SDS011;10102;50.828;4.416;2022-10-31T03:28:57;8.70;;;6.10;;
19879;SDS011;10102;50.828;4.416;2022-10-31T03:31:38;11.60;;;6.30;;
19879;SDS011;10102;50.828;4.416;2022-10-31T03:34:11;15.10;;;6.32;;
19879;SDS011;10102;50.828;4.416;2022-10-31T03:36:38;10.02;;;5.90;;
19879;SDS011;10102;50.828;4.416;2022-10-31T03:39:05;12.50;;;7.00;;
19879;SDS011;10102;50.828;4.416;2022-10-31T03:41:37;10.05;;;6.93;;
19879;SDS011;10102;50.828;4.416;2022-10-31T03:44:10;10.23;;;6.10;;
19879;SDS011;10102;50.828;4.416;2022-10-31T03:46:40;13.80;;;6.13;;
19879;SDS011;10102;50.828;4.416;2022-10-31T03:49:07;15.55;;;6.80;;
19879;SDS011;10102;50.828;4.416;2022-10-31T03:54:01;11.57;;;6.78;;
19879;SDS011;10102;50.828;4.416;2022-10-31T03:56:33;15.88;;;6.93;;
19879;SDS011;10102;50.828;4.416;2022-10-31T04:01:35;17.98;;;6.63;;
19879;SDS011;10102;50.828;4.416;2022-10-31T04:04:08;10.90;;;6.38;;
19879;SDS011;10102;50.828;4.416;2022-10-31T04:06:34;14.30;;;7.63;;
19879;SDS011;10102;50.828;4.416;2022-10-31T04:09:03;10.88;;;6.75;;
19879;SDS011;10102;50.828;4.416;2022-10-31T04:11:33;11.52;;;6.55;;
19879;SDS011;10102;50.828;4.416;2022-10-31T04:14:03;12.43;;;7.28;;
19879;SDS011;10102;50.828;4.416;2022-10-31T04:16:31;12.57;;;6.57;;
19879;SDS011;10102;50.828;4.416;2022-10-31T04:18:57;10.77;;;7.10;;
19879;SDS011;10102;50.828;4.416;2022-10-31T04:21:29;11.68;;;6.70;;
19879;SDS011;10102;50.828;4.416;2022-10-31T04:23:56;10.15;;;6.20;;
19879;SDS011;10102;50.828;4.416;2022-10-31T04:26:22;16.88;;;6.82;;
19879;SDS011;10102;50.828;4.416;2022-10-31T04:28:48;15.23;;;6.78;;
19879;SDS011;10102;50.828;4.416;2022-10-31T04:31:14;13.60;;;6.43;;
19879;SDS011;10102;50.828;4.416;2022-10-31T04:33:40;14.13;;;6.90;;
19879;SDS011;10102;50.828;4.416;2022-10-31T04:36:06;13.38;;;6.75;;
19879;SDS011;10102;50.828;4.416;2022-10-31T04:38:31;12.88;;;6.95;;
19879;SDS011;10102;50.828;4.416;2022-10-31T04:40:57;10.98;;;6.88;;
19879;SDS011;10102;50.828;4.416;2022-10-31T04:43:23;12.05;;;6.80;;
19879;SDS011;10102;50.828;4.416;2022-10-31T04:45:48;14.25;;;6.68;;
19879;SDS011;10102;50.828;4.416;2022-10-31T04:48:14;14.65;;;7.22;;
19879;SDS011;10102;50.828;4.416;2022-10-31T04:50:40;11.60;;;6.45;;
19879;SDS011;10102;50.828;4.416;2022-10-31T04:53:06;17.25;;;6.65;;
19879;SDS011;10102;50.828;4.416;2022-10-31T04:55:31;13.75;;;7.65;;
19879;SDS011;10102;50.828;4.416;2022-10-31T04:57:57;20.13;;;8.50;;
19879;SDS011;10102;50.828;4.416;2022-10-31T05:00:23;13.90;;;8.77;;
19879;SDS011;10102;50.828;4.416;2022-10-31T05:02:49;16.13;;;9.38;;
19879;SDS011;10102;50.828;4.416;2022-10-31T05:05:18;14.25;;;7.85;;
19879;SDS011;10102;50.828;4.416;2022-10-31T05:07:45;18.05;;;9.98;;
19879;SDS011;10102;50.828;4.416;2022-10-31T05:10:13;14.43;;;8.60;;
19879;SDS011;10102;50.828;4.416;2022-10-31T05:12:47;15.75;;;8.43;;
19879;SDS011;10102;50.828;4.416;2022-10-31T05:15:15;17.08;;;8.73;;
19879;SDS011;10102;50.828;4.416;2022-10-31T05:17:42;12.00;;;8.30;;
19879;SDS011;10102;50.828;4.416;2022-10-31T05:20:09;17.10;;;8.95;;
19879;SDS011;10102;50.828;4.416;2022-10-31T05:22:36;17.20;;;8.77;;
19879;SDS011;10102;50.828;4.416;2022-10-31T05:25:02;14.18;;;8.50;;
19879;SDS011;10102;50.828;4.416;2022-10-31T05:27:28;15.35;;;8.40;;
19879;SDS011;10102;50.828;4.416;2022-10-31T05:29:54;12.90;;;8.38;;
19879;SDS011;10102;50.828;4.416;2022-10-31T05:32:19;13.15;;;8.13;;
19879;SDS011;10102;50.828;4.416;2022-10-31T05:34:45;13.75;;;8.70;;
19879;SDS011;10102;50.828;4.416;2022-10-31T05:37:11;20.52;;;8.80;;
19879;SDS011;10102;50.828;4.416;2022-10-31T05:39:36;12.70;;;7.82;;
19879;SDS011;10102;50.828;4.416;2022-10-31T05:42:02;14.10;;;8.15;;
19879;SDS011;10102;50.828;4.416;2022-10-31T05:44:29;17.08;;;8.68;;
19879;SDS011;10102;50.828;4.416;2022-10-31T05:46:55;16.80;;;8.57;;
19879;SDS011;10102;50.828;4.416;2022-10-31T05:49:20;17.05;;;8.73;;
19879;SDS011;10102;50.828;4.416;2022-10-31T05:51:47;16.10;;;9.65;;
19879;SDS011;10102;50.828;4.416;2022-10-31T05:54:13;16.23;;;9.25;;
19879;SDS011;10102;50.828;4.416;2022-10-31T05:56:39;15.32;;;8.75;;
19879;SDS011;10102;50.828;4.416;2022-10-31T05:59:04;12.30;;;9.00;;
19879;SDS011;10102;50.828;4.416;2022-10-31T06:01:30;18.55;;;9.00;;
19879;SDS011;10102;50.828;4.416;2022-10-31T06:03:55;15.65;;;8.35;;
19879;SDS011;10102;50.828;4.416;2022-10-31T06:06:21;19.42;;;8.40;;
19879;SDS011;10102;50.828;4.416;2022-10-31T06:08:47;17.00;;;9.45;;
19879;SDS011;10102;50.828;4.416;2022-10-31T06:11:12;17.17;;;8.55;;
19879;SDS011;10102;50.828;4.416;2022-10-31T06:13:38;21.23;;;9.70;;
19879;SDS011;10102;50.828;4.416;2022-10-31T06:16:03;11.25;;;8.48;;
19879;SDS011;10102;50.828;4.416;2022-10-31T06:18:30;12.98;;;8.35;;
19879;SDS011;10102;50.828;4.416;2022-10-31T06:20:55;17.48;;;9.38;;
19879;SDS011;10102;50.828;4.416;2022-10-31T06:23:21;16.52;;;9.05;;
19879;SDS011;10102;50.828;4.416;2022-10-31T06:25:50;20.08;;;10.18;;
19879;SDS011;10102;50.828;4.416;2022-10-31T06:28:16;17.15;;;9.65;;
19879;SDS011;10102;50.828;4.416;2022-10-31T06:30:42;14.77;;;8.18;;
19879;SDS011;10102;50.828;4.416;2022-10-31T06:33:08;14.90;;;9.85;;
19879;SDS011;10102;50.828;4.416;2022-10-31T06:35:33;17.52;;;10.00;;
19879;SDS011;10102;50.828;4.416;2022-10-31T06:38:00;17.60;;;9.70;;
19879;SDS011;10102;50.828;4.416;2022-10-31T06:40:25;18.20;;;9.43;;
19879;SDS011;10102;50.828;4.416;2022-10-31T06:42:58;16.33;;;8.80;;
19879;SDS011;10102;50.828;4.416;2022-10-31T06:45:24;21.15;;;9.55;;
19879;SDS011;10102;50.828;4.416;2022-10-31T06:47:51;18.80;;;9.07;;
19879;SDS011;10102;50.828;4.416;2022-10-31T06:50:18;14.50;;;8.85;;
19879;SDS011;10102;50.828;4.416;2022-10-31T06:52:54;15.13;;;9.70;;
19879;SDS011;10102;50.828;4.416;2022-10-31T06:55:23;17.15;;;9.48;;
19879;SDS011;10102;50.828;4.416;2022-10-31T06:57:51;18.55;;;10.77;;
19879;SDS011;10102;50.828;4.416;2022-10-31T07:00:17;19.80;;;9.88;;
19879;SDS011;10102;50.828;4.416;2022-10-31T07:02:44;17.92;;;10.63;;
19879;SDS011;10102;50.828;4.416;2022-10-31T07:05:17;18.83;;;10.13;;
19879;SDS011;10102;50.828;4.416;2022-10-31T07:07:43;18.70;;;10.77;;
19879;SDS011;10102;50.828;4.416;2022-10-31T07:10:08;16.05;;;10.15;;
19879;SDS011;10102;50.828;4.416;2022-10-31T07:12:34;19.75;;;10.02;;
19879;SDS011;10102;50.828;4.416;2022-10-31T07:15:00;15.20;;;10.27;;
19879;SDS011;10102;50.828;4.416;2022-10-31T07:17:25;16.30;;;9.50;;
19879;SDS011;10102;50.828;4.416;2022-10-31T07:19:51;15.95;;;10.13;;
19879;SDS011;10102;50.828;4.416;2022-10-31T07:22:17;16.48;;;10.57;;
19879;SDS011;10102;50.828;4.416;2022-10-31T07:24:43;18.27;;;10.38;;
19879;SDS011;10102;50.828;4.416;2022-10-31T07:27:09;18.02;;;11.20;;
19879;SDS011;10102;50.828;4.416;2022-10-31T07:29:35;23.20;;;11.05;;
19879;SDS011;10102;50.828;4.416;2022-10-31T07:32:00;18.42;;;10.18;;
19879;SDS011;10102;50.828;4.416;2022-10-31T07:34:26;17.25;;;11.18;;
19879;SDS011;10102;50.828;4.416;2022-10-31T07:36:53;19.63;;;11.35;;
19879;SDS011;10102;50.828;4.416;2022-10-31T07:39:19;21.65;;;11.50;;
19879;SDS011;10102;50.828;4.416;2022-10-31T07:41:45;22.25;;;12.32;;
19879;SDS011;10102;50.828;4.416;2022-10-31T07:44:10;18.50;;;10.35;;
19879;SDS011;10102;50.828;4.416;2022-10-31T07:46:36;23.48;;;12.23;;
19879;SDS011;10102;50.828;4.416;2022-10-31T07:49:02;21.90;;;12.02;;
19879;SDS011;10102;50.828;4.416;2022-10-31T07:51:28;19.63;;;11.52;;
19879;SDS011;10102;50.828;4.416;2022-10-31T07:53:54;17.85;;;11.45;;
19879;SDS011;10102;50.828;4.416;2022-10-31T07:56:20;18.40;;;11.10;;
19879;SDS011;10102;50.828;4.416;2022-10-31T07:58:45;27.27;;;13.15;;
19879;SDS011;10102;50.828;4.416;2022-10-31T08:01:11;22.20;;;10.60;;
19879;SDS011;10102;50.828;4.416;2022-10-31T08:03:37;21.25;;;11.23;;
19879;SDS011;10102;50.828;4.416;2022-10-31T08:06:02;15.73;;;11.38;;
19879;SDS011;10102;50.828;4.416;2022-10-31T08:08:28;17.80;;;10.27;;
19879;SDS011;10102;50.828;4.416;2022-10-31T08:10:54;25.33;;;11.38;;
19879;SDS011;10102;50.828;4.416;2022-10-31T08:13:20;17.35;;;10.85;;
19879;SDS011;10102;50.828;4.416;2022-10-31T08:15:46;21.77;;;11.50;;
19879;SDS011;10102;50.828;4.416;2022-10-31T08:18:15;16.50;;;10.60;;
19879;SDS011;10102;50.828;4.416;2022-10-31T08:20:42;17.55;;;11.13;;
19879;SDS011;10102;50.828;4.416;2022-10-31T08:23:08;19.27;;;9.80;;
19879;SDS011;10102;50.828;4.416;2022-10-31T08:25:35;15.90;;;10.13;;
19879;SDS011;10102;50.828;4.416;2022-10-31T08:28:01;16.08;;;9.88;;
19879;SDS011;10102;50.828;4.416;2022-10-31T08:30:29;19.80;;;9.55;;
19879;SDS011;10102;50.828;4.416;2022-10-31T08:33:08;19.17;;;9.63;;
19879;SDS011;10102;50.828;4.416;2022-10-31T08:35:39;20.55;;;10.48;;
19879;SDS011;10102;50.828;4.416;2022-10-31T08:38:05;16.58;;;10.05;;
19879;SDS011;10102;50.828;4.416;2022-10-31T08:40:32;20.95;;;10.15;;
19879;SDS011;10102;50.828;4.416;2022-10-31T08:43:01;21.88;;;10.10;;
19879;SDS011;10102;50.828;4.416;2022-10-31T08:45:35;15.23;;;9.18;;
19879;SDS011;10102;50.828;4.416;2022-10-31T08:48:03;18.98;;;9.05;;
19879;SDS011;10102;50.828;4.416;2022-10-31T08:50:31;20.15;;;10.43;;
19879;SDS011;10102;50.828;4.416;2022-10-31T08:53:02;18.10;;;9.52;;
19879;SDS011;10102;50.828;4.416;2022-10-31T08:55:29;16.65;;;9.35;;
19879;SDS011;10102;50.828;4.416;2022-10-31T08:57:56;15.73;;;9.25;;
19879;SDS011;10102;50.828;4.416;2022-10-31T09:00:23;14.65;;;9.00;;
19879;SDS011;10102;50.828;4.416;2022-10-31T09:02:55;25.15;;;9.27;;
19879;SDS011;10102;50.828;4.416;2022-10-31T09:05:25;15.38;;;8.68;;
19879;SDS011;10102;50.828;4.416;2022-10-31T09:07:54;18.73;;;9.43;;
19879;SDS011;10102;50.828;4.416;2022-10-31T09:10:22;19.58;;;8.73;;
19879;SDS011;10102;50.828;4.416;2022-10-31T09:12:55;14.80;;;8.98;;
19879;SDS011;10102;50.828;4.416;2022-10-31T09:15:26;15.13;;;8.15;;
19879;SDS011;10102;50.828;4.416;2022-10-31T09:17:53;16.65;;;8.52;;
19879;SDS011;10102;50.828;4.416;2022-10-31T09:20:20;13.48;;;7.80;;
19879;SDS011;10102;50.828;4.416;2022-10-31T09:22:46;20.27;;;8.23;;
19879;SDS011;10102;50.828;4.416;2022-10-31T09:25:13;12.98;;;7.50;;
19879;SDS011;10102;50.828;4.416;2022-10-31T09:27:42;17.00;;;8.57;;
19879;SDS011;10102;50.828;4.416;2022-10-31T09:30:08;17.75;;;8.10;;
19879;SDS011;10102;50.828;4.416;2022-10-31T09:32:34;9.95;;;7.25;;
19879;SDS011;10102;50.828;4.416;2022-10-31T09:35:00;17.05;;;8.27;;
19879;SDS011;10102;50.828;4.416;2022-10-31T09:37:26;17.30;;;8.20;;
19879;SDS011;10102;50.828;4.416;2022-10-31T09:39:51;18.00;;;8.43;;
19879;SDS011;10102;50.828;4.416;2022-10-31T09:42:31;17.63;;;7.88;;
19879;SDS011;10102;50.828;4.416;2022-10-31T09:45:16;16.80;;;8.60;;
19879;SDS011;10102;50.828;4.416;2022-10-31T09:47:58;14.55;;;7.40;;
19879;SDS011;10102;50.828;4.416;2022-10-31T09:50:33;24.67;;;8.63;;
19879;SDS011;10102;50.828;4.416;2022-10-31T09:53:48;14.32;;;7.82;;
19879;SDS011;10102;50.828;4.416;2022-10-31T09:56:10;15.35;;;8.20;;
19879;SDS011;10102;50.828;4.416;2022-10-31T09:58:51;13.50;;;7.78;;
19879;SDS011;10102;50.828;4.416;2022-10-31T10:01:31;14.18;;;8.55;;
19879;SDS011;10102;50.828;4.416;2022-10-31T10:07:08;15.13;;;8.15;;
19879;SDS011;10102;50.828;4.416;2022-10-31T10:09:45;14.63;;;7.75;;
19879;SDS011;10102;50.828;4.416;2022-10-31T10:17:44;13.75;;;7.25;;
19879;SDS011;10102;50.828;4.416;2022-10-31T10:26:01;13.25;;;6.60;;
19879;SDS011;10102;50.828;4.416;2022-10-31T10:28:56;14.30;;;6.93;;
19879;SDS011;10102;50.828;4.416;2022-10-31T10:31:28;13.38;;;6.47;;
19879;SDS011;10102;50.828;4.416;2022-10-31T10:39:15;13.45;;;6.80;;
19879;SDS011;10102;50.828;4.416;2022-10-31T10:41:47;12.98;;;6.70;;
19879;SDS011;10102;50.828;4.416;2022-10-31T10:44:33;20.20;;;7.38;;
19879;SDS011;10102;50.828;4.416;2022-10-31T10:47:21;21.83;;;7.18;;
19879;SDS011;10102;50.828;4.416;2022-10-31T10:50:39;21.42;;;6.88;;
19879;SDS011;10102;50.828;4.416;2022-10-31T10:59:06;15.98;;;6.65;;
19879;SDS011;10102;50.828;4.416;2022-10-31T11:01:39;14.25;;;6.32;;
19879;SDS011;10102;50.828;4.416;2022-10-31T11:04:21;15.65;;;6.70;;
19879;SDS011;10102;50.828;4.416;2022-10-31T11:07:36;9.52;;;6.55;;
19879;SDS011;10102;50.828;4.416;2022-10-31T11:09:38;14.25;;;7.95;;
19879;SDS011;10102;50.828;4.416;2022-10-31T11:12:24;15.40;;;7.55;;
19879;SDS011;10102;50.828;4.416;2022-10-31T11:15:02;16.70;;;7.07;;
19879;SDS011;10102;50.828;4.416;2022-10-31T11:17:34;12.15;;;6.40;;
19879;SDS011;10102;50.828;4.416;2022-10-31T11:22:33;21.67;;;7.55;;
19879;SDS011;10102;50.828;4.416;2022-10-31T11:24:58;17.15;;;6.82;;
19879;SDS011;10102;50.828;4.416;2022-10-31T11:27:25;18.77;;;7.03;;
19879;SDS011;10102;50.828;4.416;2022-10-31T11:29:51;12.77;;;6.35;;
19879;SDS011;10102;50.828;4.416;2022-10-31T11:32:26;15.15;;;7.18;;
19879;SDS011;10102;50.828;4.416;2022-10-31T11:34:54;11.77;;;6.55;;
19879;SDS011;10102;50.828;4.416;2022-10-31T11:37:29;18.52;;;6.80;;
19879;SDS011;10102;50.828;4.416;2022-10-31T11:40:00;19.50;;;6.68;;
19879;SDS011;10102;50.828;4.416;2022-10-31T11:42:34;11.95;;;5.93;;
19879;SDS011;10102;50.828;4.416;2022-10-31T11:45:07;15.38;;;6.50;;
19879;SDS011;10102;50.828;4.416;2022-10-31T11:47:44;31.85;;;7.13;;
19879;SDS011;10102;50.828;4.416;2022-10-31T11:50:18;16.50;;;6.75;;
19879;SDS011;10102;50.828;4.416;2022-10-31T11:52:47;13.98;;;7.18;;
19879;SDS011;10102;50.828;4.416;2022-10-31T11:55:15;14.65;;;7.25;;
19879;SDS011;10102;50.828;4.416;2022-10-31T11:57:51;10.25;;;6.43;;
19879;SDS011;10102;50.828;4.416;2022-10-31T12:02:49;10.95;;;6.28;;
19879;SDS011;10102;50.828;4.416;2022-10-31T12:05:19;13.70;;;6.28;;
19879;SDS011;10102;50.828;4.416;2022-10-31T12:07:50;15.45;;;6.15;;
19879;SDS011;10102;50.828;4.416;2022-10-31T12:10:16;16.75;;;6.40;;
19879;SDS011;10102;50.828;4.416;2022-10-31T12:13:22;12.23;;;5.97;;
19879;SDS011;10102;50.828;4.416;2022-10-31T12:15:54;13.68;;;6.28;;
19879;SDS011;10102;50.828;4.416;2022-10-31T12:21:38;13.93;;;5.57;;
19879;SDS011;10102;50.828;4.416;2022-10-31T12:29:43;15.45;;;5.68;;
19879;SDS011;10102;50.828;4.416;2022-10-31T12:40:43;14.60;;;5.65;;
19879;SDS011;10102;50.828;4.416;2022-10-31T12:46:36;18.95;;;5.93;;
19879;SDS011;10102;50.828;4.416;2022-10-31T12:59:53;29.60;;;6.72;;
19879;SDS011;10102;50.828;4.416;2022-10-31T13:05:02;15.55;;;6.03;;
19879;SDS011;10102;50.828;4.416;2022-10-31T13:07:34;15.45;;;5.97;;
19879;SDS011;10102;50.828;4.416;2022-10-31T13:13:06;26.80;;;5.95;;
19879;SDS011;10102;50.828;4.416;2022-10-31T13:15:46;16.33;;;6.50;;
19879;SDS011;10102;50.828;4.416;2022-10-31T13:18:21;14.02;;;5.43;;
19879;SDS011;10102;50.828;4.416;2022-10-31T13:20:55;20.42;;;6.13;;
19879;SDS011;10102;50.828;4.416;2022-10-31T13:25:54;13.73;;;6.15;;
19879;SDS011;10102;50.828;4.416;2022-10-31T13:28:40;17.70;;;6.63;;
19879;SDS011;10102;50.828;4.416;2022-10-31T13:31:11;9.35;;;5.53;;
19879;SDS011;10102;50.828;4.416;2022-10-31T13:33:48;18.35;;;6.55;;
19879;SDS011;10102;50.828;4.416;2022-10-31T13:40:02;15.20;;;6.07;;
19879;SDS011;10102;50.828;4.416;2022-10-31T13:42:40;15.93;;;6.13;;
19879;SDS011;10102;50.828;4.416;2022-10-31T13:45:16;19.42;;;6.38;;
19879;SDS011;10102;50.828;4.416;2022-10-31T13:47:54;16.08;;;6.70;;
19879;SDS011;10102;50.828;4.416;2022-10-31T13:50:26;13.25;;;6.35;;
19879;SDS011;10102;50.828;4.416;2022-10-31T13:53:14;13.23;;;5.93;;
19879;SDS011;10102;50.828;4.416;2022-10-31T13:55:46;13.38;;;5.13;;
19879;SDS011;10102;50.828;4.416;2022-10-31T13:58:31;18.05;;;5.88;;
19879;SDS011;10102;50.828;4.416;2022-10-31T14:01:03;17.23;;;6.00;;
19879;SDS011;10102;50.828;4.416;2022-10-31T14:03:30;17.33;;;5.93;;
19879;SDS011;10102;50.828;4.416;2022-10-31T14:05:58;15.60;;;5.22;;
19879;SDS011;10102;50.828;4.416;2022-10-31T14:08:24;10.07;;;4.53;;
19879;SDS011;10102;50.828;4.416;2022-10-31T14:10:51;14.55;;;5.55;;
19879;SDS011;10102;50.828;4.416;2022-10-31T14:13:24;14.63;;;5.30;;
19879;SDS011;10102;50.828;4.416;2022-10-31T14:15:53;16.85;;;4.90;;
19879;SDS011;10102;50.828;4.416;2022-10-31T14:18:22;15.35;;;5.07;;
19879;SDS011;10102;50.828;4.416;2022-10-31T14:20:57;18.92;;;5.35;;
19879;SDS011;10102;50.828;4.416;2022-10-31T14:28:57;16.38;;;4.90;;
19879;SDS011;10102;50.828;4.416;2022-10-31T14:31:38;12.95;;;5.00;;
19879;SDS011;10102;50.828;4.416;2022-10-31T14:34:20;16.13;;;5.50;;
19879;SDS011;10102;50.828;4.416;2022-10-31T14:42:30;13.85;;;4.97;;
19879;SDS011;10102;50.828;4.416;2022-10-31T14:47:47;10.85;;;4.20;;
19879;SDS011;10102;50.828;4.416;2022-10-31T14:53:26;19.08;;;4.78;;
19879;SDS011;10102;50.828;4.416;2022-10-31T14:55:56;14.82;;;5.13;;
19879;SDS011;10102;50.828;4.416;2022-10-31T14:58:41;18.25;;;5.47;;
19879;SDS011;10102;50.828;4.416;2022-10-31T15:01:18;17.00;;;5.43;;
19879;SDS011;10102;50.828;4.416;2022-10-31T15:03:48;13.68;;;5.40;;
19879;SDS011;10102;50.828;4.416;2022-10-31T15:06:15;12.57;;;5.07;;
19879;SDS011;10102;50.828;4.416;2022-10-31T15:08:47;11.80;;;5.03;;
19879;SDS011;10102;50.828;4.416;2022-10-31T15:11:18;18.50;;;6.05;;
19879;SDS011;10102;50.828;4.416;2022-10-31T15:13:58;14.48;;;5.38;;
19879;SDS011;10102;50.828;4.416;2022-10-31T15:16:28;21.27;;;5.65;;
19879;SDS011;10102;50.828;4.416;2022-10-31T15:19:07;17.17;;;5.60;;
19879;SDS011;10102;50.828;4.416;2022-10-31T15:21:39;16.58;;;6.03;;
19879;SDS011;10102;50.828;4.416;2022-10-31T15:24:11;17.13;;;6.90;;
19879;SDS011;10102;50.828;4.416;2022-10-31T15:26:44;16.75;;;6.03;;
19879;SDS011;10102;50.828;4.416;2022-10-31T15:29:13;21.15;;;6.95;;
19879;SDS011;10102;50.828;4.416;2022-10-31T15:31:53;20.42;;;6.15;;
19879;SDS011;10102;50.828;4.416;2022-10-31T15:37:11;15.70;;;6.97;;
19879;SDS011;10102;50.828;4.416;2022-10-31T15:39:38;15.98;;;6.05;;
19879;SDS011;10102;50.828;4.416;2022-10-31T15:42:13;15.65;;;6.35;;
19879;SDS011;10102;50.828;4.416;2022-10-31T15:44:43;18.02;;;7.07;;
19879;SDS011;10102;50.828;4.416;2022-10-31T15:47:15;10.20;;;6.00;;
19879;SDS011;10102;50.828;4.416;2022-10-31T15:49:55;14.55;;;6.43;;
19879;SDS011;10102;50.828;4.416;2022-10-31T15:55:05;15.50;;;6.55;;
19879;SDS011;10102;50.828;4.416;2022-10-31T15:57:48;16.73;;;7.40;;
19879;SDS011;10102;50.828;4.416;2022-10-31T16:03:00;22.77;;;8.25;;
19879;SDS011;10102;50.828;4.416;2022-10-31T16:05:34;14.23;;;6.97;;
19879;SDS011;10102;50.828;4.416;2022-10-31T16:10:58;16.60;;;7.75;;
19879;SDS011;10102;50.828;4.416;2022-10-31T16:13:31;14.65;;;7.28;;
19879;SDS011;10102;50.828;4.416;2022-10-31T16:16:01;22.00;;;7.93;;
19879;SDS011;10102;50.828;4.416;2022-10-31T16:18:29;15.25;;;8.00;;
19879;SDS011;10102;50.828;4.416;2022-10-31T16:21:01;17.17;;;7.45;;
19879;SDS011;10102;50.828;4.416;2022-10-31T16:23:27;16.00;;;7.45;;
19879;SDS011;10102;50.828;4.416;2022-10-31T16:25:53;16.30;;;8.10;;
19879;SDS011;10102;50.828;4.416;2022-10-31T16:28:23;21.05;;;8.18;;
19879;SDS011;10102;50.828;4.416;2022-10-31T16:30:51;23.10;;;8.27;;
19879;SDS011;10102;50.828;4.416;2022-10-31T16:33:32;18.55;;;7.88;;
19879;SDS011;10102;50.828;4.416;2022-10-31T16:36:30;16.63;;;8.32;;
19879;SDS011;10102;50.828;4.416;2022-10-31T16:38:56;26.30;;;8.05;;
19879;SDS011;10102;50.828;4.416;2022-10-31T16:41:25;22.77;;;8.43;;
19879;SDS011;10102;50.828;4.416;2022-10-31T16:43:51;19.83;;;8.82;;
19879;SDS011;10102;50.828;4.416;2022-10-31T16:46:22;23.95;;;8.00;;
19879;SDS011;10102;50.828;4.416;2022-10-31T16:48:52;18.85;;;8.75;;
19879;SDS011;10102;50.828;4.416;2022-10-31T16:51:20;18.05;;;7.80;;
19879;SDS011;10102;50.828;4.416;2022-10-31T16:53:46;21.30;;;9.07;;
19879;SDS011;10102;50.828;4.416;2022-10-31T16:56:14;21.67;;;8.98;;
19879;SDS011;10102;50.828;4.416;2022-10-31T16:58:42;21.40;;;9.88;;
19879;SDS011;10102;50.828;4.416;2022-10-31T17:01:08;14.63;;;7.68;;
19879;SDS011;10102;50.828;4.416;2022-10-31T17:03:36;18.80;;;8.88;;
19879;SDS011;10102;50.828;4.416;2022-10-31T17:06:02;18.58;;;8.35;;
19879;SDS011;10102;50.828;4.416;2022-10-31T17:08:27;18.83;;;8.73;;
19879;SDS011;10102;50.828;4.416;2022-10-31T17:10:55;16.45;;;8.80;;